Mugla, Turkey
Current Conditions -  °F | °C
As of 2:20 PM on Monday 24 Nov 2014 (Local Time) from LTFE Reporting Station
Scattered Clouds Scattered Clouds  
Wind Chill: 61°   Ceiling: Unl
Heat Index: 61°   Visibility: 6mi
Dew Point: 36°   Wind: 13mph
Humidity: 39%   Direction: 60°ENE
Pressure: 30"   Gusts: NA
Location:  37.22°N, 28.36°E
Report Text: LTFE 241220Z 06011KT 9999 FEW035 SCT200 16/02 Q1016 NOSIG
Loading
Personal Weather Stations






























Interactive Weather Map New forecast layout! Learn more

10-Day Weather Forecast

Advertisements
Track Severe Weather on mobile